Language selection

My Weather Profile Weather Topics  | 

Atlantic - Labrador: Past 24 Hour Conditions

 

CFB Goose Bay

04:00 PM ADT 13 May 2021
Disclaimer

This table is a summary of hourly weather conditions for the past 24 hours.
Please note that these observations might not always be representative of weather conditions over their associated marine area.

Date / Time
(ADT)
Wind(knots) Conditions Visibility(km) Pressure(kPa) Air tempC) Relative humidity(%) Dew pointC)
13 May 2021
16:00 NW 15 Cloudy 24 101.1 6 63 0
15:00 NW 10 gust 15 Light Rain 24 101.1 6 68 0
14:00 WNW 11 gust 16 Light Rain 24 101.1 5 73 0
13:00 NW 15 Light Rain 24 101.1 5 75 1
12:00 WNW 14 Light Rainshower 19 101.1 4 76 0
11:00 WNW 12 Light Rainshower 13 101.1 3 84 0
10:00 W 8 gust 17 Light Snowshower 5 101.1 2 87 0
9:00 W 9 Light Snowshower 4 101.1 1 88 -1
8:00 W 7 Light Snowshower 2 101.1 1 87 -1
7:00 W 8 Light Snowshower 5 101.1 1 85 -2
6:00 WNW 11 Light Snowshower 10 101.1 1 73 -3
5:00 WNW 10 Light Snowshower 16 101.1 2 68 -3
4:00 WNW 12 Light Snowshower 24 101.1 2 63 -4
3:00 NW 14 Cloudy 24 101.2 2 60 -4
2:00 WNW 11 Cloudy 24 101.2 2 61 -4
1:00 WNW 10 Cloudy 24 101.2 3 60 -4
0:00 NW 12 Cloudy 24 101.3 3 57 -4
12 May 2021
23:00 NW 12 Cloudy 24 101.3 3 52 -5
22:00 NNW 14 gust 20 Cloudy 24 101.4 4 50 -5
21:00 NNW 13 gust 18 Cloudy 24 101.4 4 51 -5
20:00 NNW 11 Cloudy 24 101.4 4 52 -4
19:00 NNW 13 gust 18 Cloudy 24 101.4 4 57 -3
18:00 NNW 16 Cloudy 24 101.4 6 51 -3
17:00 NNW 10 gust 21 Cloudy 24 101.4 5 58 -2
16:00 NW 19 gust 26 Cloudy 24 101.3 6 53 -2

Zoom-in to make a selection

Map of Atlantic - Labrador marine weather areas Kangiqsualujjuaq Airport Cape Kakkiviak Cape Kiglapait Cartwright Airport CFB Goose Bay Hopedale Mary's Harbour Nain Airport Makkovik Airport Saglek Tukialik Bay
Legend:
buoy Buoy
land station Land Station

Atlantic - Labrador Area

Another Region

What we are doing

Date modified: